Time;durP1;ratioP1;P1;durP2;ratioP2;P2;SDS_P1;SDS_P2;PMS_P1;PMS_P2;Temp;Humidity;BMP_temperature;BMP_pressure;BME280_temperature;BME280_humidity;BME280_pressure;Samples;Min_cycle;Max_cycle;Signal;HPM_P1;HPM_P2
2022/01/30 00:00:56;;;;;;;;;;;7.60;99.90;;;;;;4955438;29;19931;-83
2022/01/30 00:03:24;;;;;;;;;;;7.50;99.90;;;;;;4948754;28;19938;-84
2022/01/30 00:05:52;;;;;;;;;;;7.40;99.90;;;;;;4932449;28;19943;-83
2022/01/30 00:08:21;;;;;;;;;;;7.50;99.90;;;;;;4956808;28;19941;-83
2022/01/30 00:10:55;;;;;;;;;;;7.50;99.90;;;;;;5005178;28;19923;-83
2022/01/30 00:13:26;;;;;;;;;;;7.60;99.90;;;;;;5002679;28;19921;-83
2022/01/30 00:15:55;;;;;;;;;;;7.30;99.90;;;;;;5002885;28;19926;-81
2022/01/30 00:23:51;;;;;;;;;;;7.40;99.90;;;;;;4998455;28;19931;-82
2022/01/30 00:26:27;;;;;;;;;;;7.40;99.90;;;;;;4993879;28;19933;-83
2022/01/30 00:28:55;;;;;;;;;;;7.00;99.90;;;;;;4993092;28;20457;-83
2022/01/30 00:31:25;;;;;;;;;;;8.20;99.90;;;;;;4998928;28;19927;-83
2022/01/30 00:34:17;;;;;;;;;;;7.30;99.90;;;;;;4977895;28;19933;-81
2022/01/30 00:36:47;;;;;;;;;;;7.30;99.90;;;;;;4953579;28;19941;-83
2022/01/30 00:39:20;;;;;;;;;;;7.60;99.90;;;;;;4974505;28;19935;-83
2022/01/30 00:41:49;;;;;;;;;;;7.20;99.90;;;;;;5042954;28;20090;-83
2022/01/30 00:44:20;;;;;;;;;;;7.10;99.90;;;;;;5038581;28;19932;-84
2022/01/30 00:46:51;;;;;;;;;;;7.40;99.90;;;;;;4962143;28;19934;-84
2022/01/30 00:49:19;;;;;;;;;;;7.20;99.90;;;;;;4935864;28;19937;-81
2022/01/30 00:51:49;;;;;;;;;;;7.10;99.90;;;;;;5008368;28;19926;-83
2022/01/30 00:54:21;;;;;;;;;;;7.00;99.90;;;;;;5012251;28;19936;-82
2022/01/30 00:56:49;;;;;;;;;;;7.00;99.90;;;;;;4973921;28;19932;-82
2022/01/30 00:59:18;;;;;;;;;;;6.90;99.90;;;;;;4947164;28;19935;-83
2022/01/30 01:01:46;;;;;;;;;;;6.90;99.90;;;;;;4926624;28;19931;-83
2022/01/30 01:04:17;;;;;;;;;;;6.80;99.90;;;;;;5017458;28;19925;-83
2022/01/30 01:06:49;;;;;;;;;;;6.90;99.90;;;;;;4997434;28;19938;-84
2022/01/30 01:09:22;;;;;;;;;;;7.00;99.90;;;;;;4944377;28;19935;-84
2022/01/30 01:23:28;;;;;;;;;;;6.80;99.90;;;;;;4945982;28;19927;-85
2022/01/30 01:25:59;;;;;;;;;;;6.80;99.90;;;;;;4946460;28;19927;-85
2022/01/30 01:28:28;;;;;;;;;;;7.00;99.90;;;;;;4926391;29;19937;-83
2022/01/30 01:30:57;;;;;;;;;;;6.70;99.90;;;;;;4938632;28;19937;-85
2022/01/30 01:33:34;;;;;;;;;;;6.70;99.90;;;;;;4948850;28;19931;-84
2022/01/30 01:36:03;;;;;;;;;;;4.90;99.90;;;;;;4947537;28;19938;-86
2022/01/30 01:38:33;;;;;;;;;;;6.70;99.90;;;;;;4947253;29;19931;-82
2022/01/30 01:41:01;;;;;;;;;;;6.40;99.90;;;;;;4947977;29;19927;-83
2022/01/30 01:43:30;;;;;;;;;;;6.60;99.90;;;;;;4947840;28;19968;-83
2022/01/30 01:46:11;;;;;;;;;;;6.50;99.90;;;;;;4927895;29;19931;-83
2022/01/30 01:48:44;;;;;;;;;;;6.50;99.90;;;;;;4956467;28;19925;-82
2022/01/30 01:51:18;;;;;;;;;;;6.90;99.90;;;;;;4973679;28;19925;-83
2022/01/30 01:53:47;;;;;;;;;;;6.50;99.90;;;;;;4637314;28;10000054;-84
2022/01/30 01:56:16;;;;;;;;;;;6.30;99.90;;;;;;4925123;29;19931;-82
2022/01/30 01:58:50;;;;;;;;;;;6.50;99.90;;;;;;4944841;29;19927;-82
2022/01/30 02:01:36;;;;;;;;;;;6.40;99.90;;;;;;4911164;29;19950;-82
2022/01/30 02:04:10;;;;;;;;;;;6.40;99.90;;;;;;4910719;28;20400;-82
2022/01/30 02:06:39;;;;;;;;;;;6.30;99.90;;;;;;4881059;29;19934;-82
2022/01/30 02:09:12;;;;;;;;;;;5.30;99.90;;;;;;4910008;29;19932;-81
2022/01/30 02:11:43;;;;;;;;;;;6.40;99.90;;;;;;4893401;29;19937;-81
2022/01/30 02:14:32;;;;;;;;;;;6.30;99.90;;;;;;4879164;29;19927;-82
2022/01/30 02:25:38;;;;;;;;;;;4.60;99.90;;;;;;4893337;28;19927;-81
2022/01/30 02:28:15;;;;;;;;;;;5.90;99.90;;;;;;4908716;29;19927;-81
2022/01/30 02:31:06;;;;;;;;;;;6.00;99.90;;;;;;4918773;28;19934;-83
2022/01/30 02:33:34;;;;;;;;;;;5.80;99.90;;;;;;4915359;29;19934;-83
2022/01/30 02:36:03;;;;;;;;;;;5.70;99.90;;;;;;4909419;28;19931;-84
2022/01/30 02:38:34;;;;;;;;;;;5.70;99.90;;;;;;4894424;29;19928;-85
2022/01/30 02:41:04;;;;;;;;;;;5.70;99.90;;;;;;4893832;29;19935;-82
2022/01/30 02:43:53;;;;;;;;;;;5.70;99.90;;;;;;4894697;28;19931;-84
2022/01/30 02:46:30;;;;;;;;;;;5.60;99.90;;;;;;4910681;29;19927;-86
2022/01/30 02:49:12;;;;;;;;;;;5.50;99.90;;;;;;4922030;29;19934;-83
2022/01/30 02:51:48;;;;;;;;;;;5.50;99.90;;;;;;4896518;29;20007;-81
2022/01/30 02:54:17;;;;;;;;;;;5.50;99.90;;;;;;4911429;29;19939;-82
2022/01/30 02:56:47;;;;;;;;;;;5.60;99.90;;;;;;4911835;29;19928;-83
2022/01/30 02:59:15;;;;;;;;;;;5.60;99.90;;;;;;4896351;29;19934;-83
2022/01/30 03:01:45;;;;;;;;;;;5.40;99.90;;;;;;4950684;28;19927;-84
2022/01/30 03:04:15;;;;;;;;;;;5.40;99.90;;;;;;5042722;28;19925;-85
2022/01/30 03:06:44;;;;;;;;;;;5.40;99.90;;;;;;4933909;29;19927;-86
2022/01/30 03:09:30;;;;;;;;;;;5.40;99.90;;;;;;4934678;29;20438;-85
2022/01/30 03:12:00;;;;;;;;;;;5.30;99.90;;;;;;4951358;28;19915;-83
2022/01/30 03:14:30;;;;;;;;;;;5.50;99.90;;;;;;4951239;29;19934;-84
2022/01/30 03:17:00;;;;;;;;;;;5.50;99.90;;;;;;4956350;28;19953;-84
2022/01/30 03:19:30;;;;;;;;;;;5.50;99.90;;;;;;4955633;28;20391;-83
2022/01/30 03:22:01;;;;;;;;;;;5.50;99.90;;;;;;4977174;28;19931;-85
2022/01/30 03:24:37;;;;;;;;;;;5.10;99.90;;;;;;5051157;28;19925;-83
2022/01/30 03:27:29;;;;;;;;;;;5.40;99.90;;;;;;5040135;28;19929;-84
2022/01/30 03:30:04;;;;;;;;;;;4.60;99.90;;;;;;4923050;28;19997;-85
2022/01/30 03:33:08;;;;;;;;;;;5.30;99.90;;;;;;4968629;28;19933;-84
2022/01/30 03:35:38;;;;;;;;;;;5.40;99.90;;;;;;5018713;28;19936;-83
2022/01/30 03:38:10;;;;;;;;;;;5.40;99.90;;;;;;5048129;28;19925;-84
2022/01/30 03:40:39;;;;;;;;;;;5.40;99.90;;;;;;5042738;28;19927;-84
2022/01/30 03:43:07;;;;;;;;;;;5.50;99.90;;;;;;4949040;29;19926;-83
2022/01/30 03:45:37;;;;;;;;;;;5.40;99.90;;;;;;4947795;29;19917;-83
2022/01/30 03:48:06;;;;;;;;;;;5.20;99.90;;;;;;5041375;28;19929;-84
2022/01/30 03:50:55;;;;;;;;;;;5.20;99.90;;;;;;4941001;28;19927;-84
2022/01/30 03:53:24;;;;;;;;;;;5.20;99.90;;;;;;4946872;28;19931;-84
2022/01/30 03:55:55;;;;;;;;;;;5.10;99.90;;;;;;4947274;28;19937;-83
2022/01/30 03:58:29;;;;;;;;;;;5.00;99.90;;;;;;4585169;28;10000564;-84
2022/01/30 04:01:04;;;;;;;;;;;5.10;99.90;;;;;;4939423;28;19933;-84
2022/01/30 04:03:36;;;;;;;;;;;4.90;99.90;;;;;;5048035;28;19929;-84
2022/01/30 04:06:06;;;;;;;;;;;3.50;99.90;;;;;;5031560;28;19936;-83
2022/01/30 04:08:40;;;;;;;;;;;4.70;99.90;;;;;;5047157;28;19925;-84
2022/01/30 04:11:22;;;;;;;;;;;4.70;99.90;;;;;;5016441;28;19936;-84
2022/01/30 04:14:01;;;;;;;;;;;4.70;99.90;;;;;;5047584;28;19925;-84
2022/01/30 04:17:09;;;;;;;;;;;4.80;99.90;;;;;;5006817;28;19925;-85
2022/01/30 04:19:50;;;;;;;;;;;4.70;99.90;;;;;;4957542;28;19933;-85
2022/01/30 04:22:32;;;;;;;;;;;4.00;99.90;;;;;;4933821;29;19934;-86
2022/01/30 04:25:34;;;;;;;;;;;4.80;99.90;;;;;;4951129;28;19931;-83
2022/01/30 04:28:05;;;;;;;;;;;4.90;99.90;;;;;;4937119;29;19911;-84
2022/01/30 04:31:05;;;;;;;;;;;4.60;99.90;;;;;;4941264;29;19926;-84
2022/01/30 04:34:02;;;;;;;;;;;4.60;99.90;;;;;;4934388;28;19934;-84
2022/01/30 04:37:02;;;;;;;;;;;4.80;99.90;;;;;;4947592;28;19927;-83
2022/01/30 04:40:38;;;;;;;;;;;4.60;99.90;;;;;;4963178;28;19930;-84
2022/01/30 04:53:06;;;;;;;;;;;4.50;99.90;;;;;;4931989;29;19931;-85
2022/01/30 05:02:07;;;;;;;;;;;4.60;99.90;;;;;;4947895;28;19933;-83
2022/01/30 05:07:34;;;;;;;;;;;4.30;99.90;;;;;;5021544;28;19925;-84
2022/01/30 05:10:32;;;;;;;;;;;4.50;99.90;;;;;;5046239;28;19929;-83
2022/01/30 05:13:20;;;;;;;;;;;4.30;99.90;;;;;;5030262;28;20302;-85
2022/01/30 05:16:17;;;;;;;;;;;4.40;99.90;;;;;;5030750;28;19931;-84
2022/01/30 05:19:17;;;;;;;;;;;4.50;99.90;;;;;;5025208;28;19927;-85
2022/01/30 05:22:07;;;;;;;;;;;4.20;99.90;;;;;;4946735;28;19933;-85
2022/01/30 05:24:45;;;;;;;;;;;4.10;99.90;;;;;;5009086;28;19931;-83
2022/01/30 05:27:35;;;;;;;;;;;4.10;99.90;;;;;;5031051;28;19933;-83
2022/01/30 05:30:38;;;;;;;;;;;4.00;99.90;;;;;;4946472;29;19927;-86
2022/01/30 05:33:16;;;;;;;;;;;3.90;99.90;;;;;;5001973;28;19925;-84
2022/01/30 05:36:05;;;;;;;;;;;3.90;99.90;;;;;;5034035;28;19925;-83
2022/01/30 05:39:07;;;;;;;;;;;3.90;99.90;;;;;;5026969;28;19913;-84
2022/01/30 05:41:55;;;;;;;;;;;3.80;99.90;;;;;;5031370;28;19909;-85
2022/01/30 05:45:00;;;;;;;;;;;3.70;99.90;;;;;;4992479;28;20442;-84
2022/01/30 05:47:57;;;;;;;;;;;3.60;99.90;;;;;;4936285;29;19933;-83
2022/01/30 05:50:57;;;;;;;;;;;3.50;99.90;;;;;;4966038;29;19927;-84
2022/01/30 05:53:46;;;;;;;;;;;3.50;99.90;;;;;;4967392;29;19935;-86
2022/01/30 05:56:19;;;;;;;;;;;3.40;99.90;;;;;;4949978;28;19934;-84
2022/01/30 05:58:47;;;;;;;;;;;3.40;99.90;;;;;;4996215;28;19929;-84
2022/01/30 06:01:38;;;;;;;;;;;3.30;99.90;;;;;;4943173;28;19934;-84
2022/01/30 06:04:20;;;;;;;;;;;3.20;99.90;;;;;;4934414;28;19931;-85
2022/01/30 06:06:51;;;;;;;;;;;3.30;99.90;;;;;;4932494;29;19927;-83
2022/01/30 06:09:22;;;;;;;;;;;3.10;99.90;;;;;;4932481;29;19931;-83
2022/01/30 06:11:53;;;;;;;;;;;3.40;99.90;;;;;;4933020;29;19931;-84
2022/01/30 06:14:24;;;;;;;;;;;3.10;99.90;;;;;;4933139;29;20435;-84
2022/01/30 06:17:05;;;;;;;;;;;2.10;99.90;;;;;;4933122;29;19935;-84
2022/01/30 06:19:57;;;;;;;;;;;3.10;99.90;;;;;;4961134;28;19930;-84
2022/01/30 06:23:04;;;;;;;;;;;2.80;99.90;;;;;;4934681;29;19931;-86
2022/01/30 06:25:50;;;;;;;;;;;3.30;99.90;;;;;;4965612;28;19933;-84
2022/01/30 06:28:39;;;;;;;;;;;2.80;99.90;;;;;;5029120;28;19935;-85
2022/01/30 06:31:27;;;;;;;;;;;2.80;99.90;;;;;;4966789;28;19927;-81
2022/01/30 06:34:29;;;;;;;;;;;2.90;99.90;;;;;;4964880;28;19939;-82
2022/01/30 06:37:18;;;;;;;;;;;2.60;99.90;;;;;;4998238;28;19946;-82
2022/01/30 06:39:59;;;;;;;;;;;2.60;99.90;;;;;;4946021;29;19926;-82
2022/01/30 06:42:57;;;;;;;;;;;2.40;99.90;;;;;;4928325;29;19931;-87
2022/01/30 06:45:44;;;;;;;;;;;2.60;99.90;;;;;;4927132;29;19938;-82
2022/01/30 06:48:32;;;;;;;;;;;2.60;99.90;;;;;;4938715;28;19938;-84
2022/01/30 06:51:23;;;;;;;;;;;2.50;99.90;;;;;;4913319;28;19927;-83
2022/01/30 06:54:11;;;;;;;;;;;2.40;99.90;;;;;;4926814;29;19931;-83
2022/01/30 06:56:59;;;;;;;;;;;2.40;99.90;;;;;;4927909;28;19938;-84
2022/01/30 06:59:46;;;;;;;;;;;2.30;99.90;;;;;;4952345;28;19931;-83
2022/01/30 07:02:35;;;;;;;;;;;2.30;99.90;;;;;;4949541;28;19935;-83
2022/01/30 07:05:19;;;;;;;;;;;2.40;99.90;;;;;;4970171;28;19935;-82
2022/01/30 07:07:53;;;;;;;;;;;2.30;99.90;;;;;;5023352;28;19927;-84
2022/01/30 07:10:24;;;;;;;;;;;3.20;99.90;;;;;;4931274;29;19935;-83
2022/01/30 07:12:53;;;;;;;;;;;2.20;99.90;;;;;;4931674;28;19931;-83
2022/01/30 07:15:21;;;;;;;;;;;1.30;99.90;;;;;;4947449;29;19930;-83
2022/01/30 07:17:51;;;;;;;;;;;1.30;99.90;;;;;;4945925;28;19937;-81
2022/01/30 07:20:20;;;;;;;;;;;2.20;99.90;;;;;;4946372;29;19927;-83
2022/01/30 07:22:49;;;;;;;;;;;2.40;99.90;;;;;;4930501;28;19930;-83
2022/01/30 07:25:18;;;;;;;;;;;2.40;99.90;;;;;;5007380;28;19933;-83
2022/01/30 07:27:47;;;;;;;;;;;2.30;99.90;;;;;;5022271;28;19931;-81
2022/01/30 07:30:17;;;;;;;;;;;2.10;99.90;;;;;;4946401;28;19935;-83
2022/01/30 07:32:45;;;;;;;;;;;2.10;99.90;;;;;;4954546;28;19935;-84
2022/01/30 07:35:14;;;;;;;;;;;2.30;99.90;;;;;;4931718;28;19931;-82
2022/01/30 07:37:43;;;;;;;;;;;2.10;99.90;;;;;;4946426;28;19915;-82
2022/01/30 07:40:13;;;;;;;;;;;0.90;99.90;;;;;;4594287;28;9999780;-80
2022/01/30 07:42:44;;;;;;;;;;;1.90;99.90;;;;;;4949541;29;19930;-83
2022/01/30 07:45:17;;;;;;;;;;;2.30;99.90;;;;;;4979723;28;19933;-86
2022/01/30 07:47:55;;;;;;;;;;;2.10;99.90;;;;;;4952683;28;19934;-83
2022/01/30 07:50:25;;;;;;;;;;;3.20;99.90;;;;;;4960392;28;19927;-84
2022/01/30 07:52:55;;;;;;;;;;;2.20;99.90;;;;;;4959592;28;19931;-82
2022/01/30 07:55:24;;;;;;;;;;;2.10;99.90;;;;;;4942871;29;19927;-83
2022/01/30 07:57:55;;;;;;;;;;;2.10;99.90;;;;;;4955677;28;19927;-81
2022/01/30 08:00:29;;;;;;;;;;;2.00;99.90;;;;;;5009922;28;20637;-83
2022/01/30 08:02:59;;;;;;;;;;;2.30;99.90;;;;;;4972680;28;20304;-85
2022/01/30 08:05:28;;;;;;;;;;;2.30;99.90;;;;;;4938372;22;19931;-85
2022/01/30 08:08:12;;;;;;;;;;;1.20;99.90;;;;;;4914203;29;19932;-83
2022/01/30 08:10:46;;;;;;;;;;;2.00;99.90;;;;;;4934259;28;19931;-84
2022/01/30 08:13:27;;;;;;;;;;;2.00;99.90;;;;;;4933243;28;19931;-85
2022/01/30 08:16:03;;;;;;;;;;;2.00;99.90;;;;;;4912627;28;19927;-84
2022/01/30 08:18:33;;;;;;;;;;;2.00;99.90;;;;;;4993061;28;20003;-87
2022/01/30 08:21:06;;;;;;;;;;;2.10;99.90;;;;;;4969536;28;19937;-85
2022/01/30 08:23:39;;;;;;;;;;;2.00;99.90;;;;;;4921860;28;19933;-87
2022/01/30 08:26:07;;;;;;;;;;;2.30;99.90;;;;;;4914081;28;19928;-87
2022/01/30 08:28:37;;;;;;;;;;;2.10;99.90;;;;;;4919649;29;19931;-84
2022/01/30 08:31:08;;;;;;;;;;;2.20;99.90;;;;;;4942777;28;19927;-83
2022/01/30 08:33:38;;;;;;;;;;;2.20;99.90;;;;;;4978955;28;19927;-85
2022/01/30 08:36:06;;;;;;;;;;;2.30;99.90;;;;;;4909472;29;19931;-87
2022/01/30 08:38:36;;;;;;;;;;;2.40;99.90;;;;;;4934817;28;19951;-83
2022/01/30 08:41:05;;;;;;;;;;;2.40;99.90;;;;;;4944134;28;19931;-86
2022/01/30 08:43:34;;;;;;;;;;;2.50;99.90;;;;;;4962510;28;19931;-87
2022/01/30 08:46:02;;;;;;;;;;;2.60;99.90;;;;;;4961094;28;19929;-88
2022/01/30 08:48:32;;;;;;;;;;;2.70;99.90;;;;;;4959826;28;20340;-84
2022/01/30 08:51:02;;;;;;;;;;;2.70;99.90;;;;;;4920676;28;20367;-85
2022/01/30 08:53:31;;;;;;;;;;;2.80;99.90;;;;;;4973496;28;19929;-85
2022/01/30 08:56:00;;;;;;;;;;;2.90;99.90;;;;;;4916652;28;19931;-87
2022/01/30 08:58:30;;;;;;;;;;;2.90;99.90;;;;;;4964703;28;19920;-83
2022/01/30 09:00:59;;;;;;;;;;;3.00;99.90;;;;;;4923830;29;19931;-91
2022/01/30 09:03:30;;;;;;;;;;;3.10;99.90;;;;;;4977831;28;19950;-83
2022/01/30 09:05:57;;;;;;;;;;;3.10;99.90;;;;;;4933180;28;19931;-88
2022/01/30 09:08:30;;;;;;;;;;;3.20;99.90;;;;;;4932124;28;19938;-83
2022/01/30 09:10:58;;;;;;;;;;;3.30;99.90;;;;;;4909887;28;19931;-86
2022/01/30 09:13:26;;;;;;;;;;;3.30;99.90;;;;;;4930080;28;19931;-87
2022/01/30 09:15:57;;;;;;;;;;;3.30;99.90;;;;;;4970148;28;19936;-83
2022/01/30 09:18:26;;;;;;;;;;;3.40;99.90;;;;;;4933385;29;19938;-84
2022/01/30 09:20:54;;;;;;;;;;;3.50;99.90;;;;;;4991118;28;19960;-83
2022/01/30 09:23:24;;;;;;;;;;;2.70;99.90;;;;;;4950349;28;19931;-83
2022/01/30 09:25:52;;;;;;;;;;;3.60;99.90;;;;;;4933229;29;19937;-84
2022/01/30 09:28:22;;;;;;;;;;;3.70;99.90;;;;;;4925299;29;19931;-84
2022/01/30 09:30:50;;;;;;;;;;;3.70;99.90;;;;;;4970508;28;19942;-84
2022/01/30 09:33:18;;;;;;;;;;;3.80;99.90;;;;;;4927716;28;19927;-85
2022/01/30 09:35:50;;;;;;;;;;;3.90;99.90;;;;;;4925740;28;20424;-85
2022/01/30 09:38:20;;;;;;;;;;;3.90;99.90;;;;;;4949798;28;20409;-88
2022/01/30 09:40:54;;;;;;;;;;;4.00;99.90;;;;;;4977337;28;19933;-82
2022/01/30 09:43:28;;;;;;;;;;;4.10;99.90;;;;;;4939444;28;19937;-86
2022/01/30 09:45:58;;;;;;;;;;;4.10;99.90;;;;;;4903813;28;19939;-86
2022/01/30 09:48:26;;;;;;;;;;;4.20;99.90;;;;;;4937567;28;20056;-84
2022/01/30 09:50:55;;;;;;;;;;;4.20;99.90;;;;;;4922593;28;19926;-85
2022/01/30 09:53:25;;;;;;;;;;;2.50;99.90;;;;;;4919747;28;19930;-83
2022/01/30 09:55:53;;;;;;;;;;;4.40;99.90;;;;;;4981317;28;19938;-83
2022/01/30 09:58:23;;;;;;;;;;;4.40;99.90;;;;;;4991069;28;19935;-83
2022/01/30 10:00:56;;;;;;;;;;;4.50;99.90;;;;;;4929420;29;19938;-86
2022/01/30 10:03:29;;;;;;;;;;;4.50;99.90;;;;;;4951485;28;19938;-87
2022/01/30 10:06:12;;;;;;;;;;;4.60;99.90;;;;;;4941970;28;19933;-87
2022/01/30 10:08:49;;;;;;;;;;;4.60;99.90;;;;;;4935223;28;19930;-84
2022/01/30 10:11:35;;;;;;;;;;;4.70;99.90;;;;;;4987311;28;19930;-87
2022/01/30 10:14:16;;;;;;;;;;;4.60;99.90;;;;;;4944101;28;19935;-83
2022/01/30 10:17:04;;;;;;;;;;;4.80;99.90;;;;;;4915666;29;20337;-85
2022/01/30 10:19:32;;;;;;;;;;;4.80;99.90;;;;;;4948718;28;20088;-85
2022/01/30 10:22:05;;;;;;;;;;;5.20;99.90;;;;;;4940299;29;19931;-83
2022/01/30 10:24:36;;;;;;;;;;;4.90;99.90;;;;;;4941765;28;19927;-89
2022/01/30 10:27:21;;;;;;;;;;;4.20;99.90;;;;;;4954807;28;19934;-84
2022/01/30 10:30:15;;;;;;;;;;;5.10;99.90;;;;;;4951570;28;20685;-85
2022/01/30 10:32:52;;;;;;;;;;;5.10;99.90;;;;;;4946498;28;20480;-83
2022/01/30 10:35:20;;;;;;;;;;;5.20;99.90;;;;;;4950530;28;19927;-84
2022/01/30 10:37:48;;;;;;;;;;;5.20;99.90;;;;;;4928363;28;19949;-89
2022/01/30 10:40:48;;;;;;;;;;;5.30;99.90;;;;;;4991230;28;19925;-89
2022/01/30 10:43:19;;;;;;;;;;;5.30;99.90;;;;;;4987335;28;19931;-86
2022/01/30 10:45:51;;;;;;;;;;;5.30;99.90;;;;;;4948607;29;20482;-91
2022/01/30 10:48:28;;;;;;;;;;;5.40;99.90;;;;;;4931237;29;19930;-91
2022/01/30 10:51:13;;;;;;;;;;;5.50;99.90;;;;;;4952853;28;19927;-91
2022/01/30 10:54:11;;;;;;;;;;;5.50;99.90;;;;;;4964087;28;19938;-92
2022/01/30 10:56:46;;;;;;;;;;;5.60;99.90;;;;;;5046777;28;19932;-90
2022/01/30 10:59:22;;;;;;;;;;;5.60;99.90;;;;;;4960733;28;19934;-91
2022/01/30 11:01:57;;;;;;;;;;;5.70;99.90;;;;;;4956576;28;19931;-91
2022/01/30 11:04:33;;;;;;;;;;;5.70;99.90;;;;;;4973282;28;19927;-91
2022/01/30 11:07:14;;;;;;;;;;;5.60;99.90;;;;;;4923831;29;19931;-91
2022/01/30 11:10:10;;;;;;;;;;;6.00;99.90;;;;;;4937146;28;19936;-91
2022/01/30 11:13:12;;;;;;;;;;;5.20;99.90;;;;;;5017467;28;19942;-91
2022/01/30 11:16:55;;;;;;;;;;;5.90;99.90;;;;;;4939426;29;19927;-89
2022/01/30 11:18:58;;;;;;;;;;;6.00;99.90;;;;;;4952651;28;19927;-90
2022/01/30 11:21:30;;;;;;;;;;;6.10;99.90;;;;;;4919196;28;20514;-91
2022/01/30 11:24:02;;;;;;;;;;;6.10;99.90;;;;;;4942752;28;19927;-91
2022/01/30 11:26:48;;;;;;;;;;;6.40;99.90;;;;;;4958084;29;19934;-90
2022/01/30 11:29:24;;;;;;;;;;;6.20;99.90;;;;;;4960328;28;19927;-91
2022/01/30 11:31:54;;;;;;;;;;;6.20;99.90;;;;;;4929355;28;19937;-90
2022/01/30 11:34:23;;;;;;;;;;;6.30;99.90;;;;;;4923120;28;20364;-91
2022/01/30 11:37:23;;;;;;;;;;;6.30;99.90;;;;;;4951535;29;19937;-90
2022/01/30 11:39:55;;;;;;;;;;;7.70;99.90;;;;;;4931436;29;19937;-91
2022/01/30 11:42:47;;;;;;;;;;;6.70;99.90;;;;;;4949261;28;19929;-91
2022/01/30 11:45:17;;;;;;;;;;;6.40;99.90;;;;;;5038187;28;19929;-84
2022/01/30 11:48:14;;;;;;;;;;;6.40;99.90;;;;;;5005341;28;19932;-86
2022/01/30 11:51:03;;;;;;;;;;;6.10;99.90;;;;;;4988724;28;19935;-84
2022/01/30 11:53:37;;;;;;;;;;;6.80;99.90;;;;;;5021669;28;19929;-84
2022/01/30 11:56:06;;;;;;;;;;;7.40;99.90;;;;;;5007653;28;19936;-83
2022/01/30 11:58:38;;;;;;;;;;;6.80;99.90;;;;;;5038255;28;19939;-83
2022/01/30 12:01:35;;;;;;;;;;;6.70;99.90;;;;;;5031763;28;19937;-87
2022/01/30 12:04:09;;;;;;;;;;;7.60;99.90;;;;;;5025677;28;19929;-83
2022/01/30 12:06:43;;;;;;;;;;;6.90;99.90;;;;;;5005623;28;20012;-82
2022/01/30 12:09:17;;;;;;;;;;;6.90;99.90;;;;;;5005850;28;19930;-84
2022/01/30 12:11:50;;;;;;;;;;;6.90;99.90;;;;;;4993442;28;19949;-83
2022/01/30 12:14:19;;;;;;;;;;;7.10;99.90;;;;;;5007615;28;20272;-84
2022/01/30 12:16:57;;;;;;;;;;;7.20;99.90;;;;;;5007600;28;19926;-81
2022/01/30 12:19:43;;;;;;;;;;;7.40;99.90;;;;;;5001889;28;19997;-81
2022/01/30 12:22:18;;;;;;;;;;;7.20;99.90;;;;;;5022486;28;19925;-82
2022/01/30 12:24:49;;;;;;;;;;;7.40;99.90;;;;;;5004652;28;19929;-81
2022/01/30 12:27:17;;;;;;;;;;;6.30;99.90;;;;;;5003912;28;19934;-82
2022/01/30 12:29:47;;;;;;;;;;;7.50;99.90;;;;;;5024500;28;19930;-80
2022/01/30 12:32:23;;;;;;;;;;;7.70;99.90;;;;;;5003234;28;19930;-81
2022/01/30 12:34:57;;;;;;;;;;;7.70;99.90;;;;;;5007152;28;19929;-83
2022/01/30 12:37:30;;;;;;;;;;;7.80;99.90;;;;;;5014240;28;19922;-81
2022/01/30 12:40:01;;;;;;;;;;;6.60;99.90;;;;;;5004802;28;20291;-81
2022/01/30 12:42:30;;;;;;;;;;;8.00;99.90;;;;;;5010137;28;20508;-83
2022/01/30 12:45:04;;;;;;;;;;;8.70;99.90;;;;;;5002378;28;19936;-83
2022/01/30 12:47:47;;;;;;;;;;;8.40;99.90;;;;;;5010330;28;19929;-82
2022/01/30 12:50:17;;;;;;;;;;;8.30;99.90;;;;;;5004762;28;19930;-82
2022/01/30 12:52:52;;;;;;;;;;;8.50;99.90;;;;;;5022338;28;19929;-83
2022/01/30 12:55:20;;;;;;;;;;;8.50;99.90;;;;;;4992477;28;19941;-83
2022/01/30 12:57:53;;;;;;;;;;;7.50;99.90;;;;;;5001968;28;20573;-83
2022/01/30 13:00:23;;;;;;;;;;;8.90;99.90;;;;;;5012887;28;19926;-82
2022/01/30 13:03:00;;;;;;;;;;;8.90;99.90;;;;;;4988020;28;19933;-82
2022/01/30 13:05:30;;;;;;;;;;;8.80;99.90;;;;;;5009723;28;19929;-83
2022/01/30 13:07:59;;;;;;;;;;;9.00;99.90;;;;;;5006635;28;19930;-83
2022/01/30 13:10:28;;;;;;;;;;;8.70;99.90;;;;;;4967358;28;19926;-84
2022/01/30 13:12:58;;;;;;;;;;;7.70;99.90;;;;;;5002382;28;19930;-82
2022/01/30 13:15:27;;;;;;;;;;;9.60;99.90;;;;;;5013172;28;19941;-82
2022/01/30 13:17:58;;;;;;;;;;;9.20;99.90;;;;;;5023101;28;19933;-81
2022/01/30 13:20:28;;;;;;;;;;;9.20;99.90;;;;;;5008458;28;19930;-82
2022/01/30 13:22:57;;;;;;;;;;;9.20;99.90;;;;;;5007405;28;19940;-81
2022/01/30 13:25:26;;;;;;;;;;;9.40;99.90;;;;;;5010077;28;20095;-83
2022/01/30 13:28:00;;;;;;;;;;;9.40;99.90;;;;;;5007319;28;19932;-81
2022/01/30 13:30:30;;;;;;;;;;;9.50;99.90;;;;;;5007029;28;19940;-81
2022/01/30 13:32:58;;;;;;;;;;;9.50;99.90;;;;;;5009096;28;19937;-82
2022/01/30 13:35:30;;;;;;;;;;;9.40;99.90;;;;;;5006566;28;19941;-83
2022/01/30 13:38:04;;;;;;;;;;;9.40;99.90;;;;;;5007635;28;20330;-82
2022/01/30 13:40:44;;;;;;;;;;;9.30;99.90;;;;;;5010406;28;19929;-82
2022/01/30 13:43:16;;;;;;;;;;;9.40;99.10;;;;;;5012668;28;19941;-83
2022/01/30 13:48:19;;;;;;;;;;;9.40;98.50;;;;;;5001632;28;19937;-82
2022/01/30 13:51:03;;;;;;;;;;;9.40;98.60;;;;;;5015934;28;19934;-82
2022/01/30 13:53:33;;;;;;;;;;;9.60;97.60;;;;;;4998968;28;19946;-83
2022/01/30 13:56:11;;;;;;;;;;;9.30;97.60;;;;;;4999856;28;19957;-81
2022/01/30 13:58:47;;;;;;;;;;;9.20;97.90;;;;;;5009094;28;19933;-82
2022/01/30 14:01:19;;;;;;;;;;;9.20;98.20;;;;;;4995657;28;19933;-82
2022/01/30 14:03:49;;;;;;;;;;;9.10;98.30;;;;;;5002090;28;19926;-82
2022/01/30 14:06:22;;;;;;;;;;;9.20;98.40;;;;;;5000745;28;19930;-82
2022/01/30 14:08:51;;;;;;;;;;;8.60;98.30;;;;;;5001880;28;19937;-82
2022/01/30 14:11:26;;;;;;;;;;;9.30;97.90;;;;;;5003363;28;19925;-82
2022/01/30 14:14:16;;;;;;;;;;;9.20;98.10;;;;;;5004990;28;19933;-79
2022/01/30 14:16:48;;;;;;;;;;;9.30;98.10;;;;;;5022209;28;19933;-81
2022/01/30 14:19:18;;;;;;;;;;;9.40;98.40;;;;;;5003093;28;19937;-83
2022/01/30 14:21:48;;;;;;;;;;;9.50;98.30;;;;;;5018621;28;19933;-81
2022/01/30 14:24:17;;;;;;;;;;;9.50;98.40;;;;;;5004587;28;19940;-80
2022/01/30 14:26:45;;;;;;;;;;;9.50;98.30;;;;;;5005052;28;19934;-81
2022/01/30 14:29:14;;;;;;;;;;;9.50;98.10;;;;;;4987802;28;19937;-81
2022/01/30 14:31:51;;;;;;;;;;;9.40;98.50;;;;;;5001824;28;19937;-83
2022/01/30 14:34:19;;;;;;;;;;;9.50;97.80;;;;;;5000181;28;19933;-82
2022/01/30 14:36:48;;;;;;;;;;;9.80;97.80;;;;;;5016770;28;21271;-80
2022/01/30 14:39:17;;;;;;;;;;;9.50;97.50;;;;;;4992214;28;19938;-81
2022/01/30 14:41:48;;;;;;;;;;;9.30;97.80;;;;;;5006094;28;19926;-81
2022/01/30 14:44:19;;;;;;;;;;;9.20;97.80;;;;;;5007237;28;19930;-81
2022/01/30 14:46:48;;;;;;;;;;;9.20;97.60;;;;;;5005956;28;19934;-79
2022/01/30 14:49:17;;;;;;;;;;;9.30;98.00;;;;;;5005031;28;19936;-81
2022/01/30 14:51:45;;;;;;;;;;;9.00;98.00;;;;;;5004786;28;19936;-81
2022/01/30 14:54:15;;;;;;;;;;;9.20;98.00;;;;;;5013772;28;19926;-83
2022/01/30 14:56:46;;;;;;;;;;;9.00;97.90;;;;;;5006898;28;19933;-82
2022/01/30 14:59:17;;;;;;;;;;;9.30;98.40;;;;;;5016446;28;19941;-83
2022/01/30 15:01:45;;;;;;;;;;;9.00;97.80;;;;;;5000386;28;19929;-81
2022/01/30 15:04:14;;;;;;;;;;;9.00;98.00;;;;;;5006700;28;19934;-81
2022/01/30 15:06:45;;;;;;;;;;;8.90;97.70;;;;;;5002728;28;19930;-83
2022/01/30 15:09:18;;;;;;;;;;;8.80;98.00;;;;;;5006157;28;19925;-83
2022/01/30 15:11:47;;;;;;;;;;;8.90;98.20;;;;;;5021925;28;19930;-84
2022/01/30 15:14:22;;;;;;;;;;;8.80;98.40;;;;;;5021103;28;19933;-82
2022/01/30 15:16:51;;;;;;;;;;;9.30;99.20;;;;;;5017457;28;20082;-83
2022/01/30 15:19:20;;;;;;;;;;;8.90;99.20;;;;;;5003257;28;19926;-83
2022/01/30 15:21:50;;;;;;;;;;;9.00;99.40;;;;;;5002831;28;19930;-82
2022/01/30 15:24:19;;;;;;;;;;;8.90;99.10;;;;;;5005278;28;19932;-83
2022/01/30 15:26:49;;;;;;;;;;;7.50;99.00;;;;;;5019099;28;19934;-81
2022/01/30 15:29:25;;;;;;;;;;;9.00;99.30;;;;;;4982619;28;19930;-82
2022/01/30 15:32:04;;;;;;;;;;;9.10;99.40;;;;;;5004960;28;19930;-82
2022/01/30 15:34:35;;;;;;;;;;;8.90;99.70;;;;;;5009338;28;19941;-81
2022/01/30 15:37:29;;;;;;;;;;;9.10;99.90;;;;;;5006120;28;19933;-81
2022/01/30 15:39:59;;;;;;;;;;;8.80;99.90;;;;;;5010040;28;19933;-82
2022/01/30 15:42:27;;;;;;;;;;;9.10;99.90;;;;;;5006404;28;20105;-83
2022/01/30 15:50:20;;;;;;;;;;;8.80;99.90;;;;;;5006318;28;19936;-85
2022/01/30 15:52:57;;;;;;;;;;;8.90;99.90;;;;;;4962689;28;20156;-84
2022/01/30 15:55:26;;;;;;;;;;;8.60;99.90;;;;;;5010826;28;19932;-80
2022/01/30 15:57:55;;;;;;;;;;;8.50;99.90;;;;;;4988963;28;19937;-85
2022/01/30 16:00:24;;;;;;;;;;;8.50;99.90;;;;;;4996113;28;20364;-83
2022/01/30 16:02:55;;;;;;;;;;;8.30;99.90;;;;;;5007369;28;19930;-83
2022/01/30 16:05:25;;;;;;;;;;;8.30;99.90;;;;;;5003156;28;19956;-82
2022/01/30 16:08:20;;;;;;;;;;;8.90;99.90;;;;;;5008616;28;19930;-85
2022/01/30 16:10:59;;;;;;;;;;;8.40;99.90;;;;;;5009354;28;19930;-84